createdAt,value
2022-11-10T00:01:10.155Z,100219.19
2022-11-10T00:04:16.336Z,100215.91
2022-11-10T00:07:26.437Z,100208.56
2022-11-10T00:10:33.472Z,100215.41
2022-11-10T00:13:58.142Z,100213.78
2022-11-10T00:17:04.812Z,100210.38
2022-11-10T00:20:12.985Z,100212.97
2022-11-10T00:23:19.268Z,100216.69
2022-11-10T00:26:26.565Z,100211.34
2022-11-10T00:29:33.102Z,100211.19
2022-11-10T00:32:39.061Z,100217.53
2022-11-10T00:35:45.499Z,100212.44
2022-11-10T00:38:52.026Z,100202.38
2022-11-10T00:41:58.313Z,100208.69
2022-11-10T00:45:05.030Z,100211.16
2022-11-10T00:48:11.914Z,100199.13
2022-11-10T00:51:25.491Z,100199.44
2022-11-10T00:54:31.597Z,100211.44
2022-11-10T00:57:37.958Z,100197.34
2022-11-10T01:00:44.265Z,100190.84
2022-11-10T01:03:51.505Z,100188.75
2022-11-10T01:06:57.369Z,100193.28
2022-11-10T01:10:04.297Z,100187.13
2022-11-10T01:13:10.816Z,100190.66
2022-11-10T01:16:19.454Z,100182.22
2022-11-10T01:19:44.631Z,100188.06
2022-11-10T01:22:51.297Z,100184.81
2022-11-10T01:26:08.208Z,100183.88
2022-11-10T01:29:14.469Z,100175.91
2022-11-10T01:32:20.575Z,100180.59
2022-11-10T01:35:26.739Z,100182.53
2022-11-10T01:38:35.715Z,100179.94
2022-11-10T01:41:41.909Z,100184.47
2022-11-10T01:45:25.304Z,100178.78
2022-11-10T01:48:44.184Z,100178.94
2022-11-10T01:52:00.713Z,100177.97
2022-11-10T01:55:07.255Z,100183.47
2022-11-10T01:58:16.614Z,100175.81
2022-11-10T02:01:23.703Z,100176.47
2022-11-10T02:04:30.504Z,100175.97
2022-11-10T02:07:36.745Z,100176.97
2022-11-10T02:10:42.954Z,100171.75
2022-11-10T02:13:49.435Z,100175.81
2022-11-10T02:16:56.280Z,100173.09
2022-11-10T02:20:06.931Z,100179.56
2022-11-10T02:23:34.451Z,100186.41
2022-11-10T02:26:46.770Z,100172.44
2022-11-10T02:29:53.183Z,100180.56
2022-11-10T02:32:59.256Z,100177.13
2022-11-10T02:36:05.569Z,100187.22
2022-11-10T02:39:11.821Z,100183.16
2022-11-10T02:42:18.100Z,100191.09
2022-11-10T02:45:24.706Z,100189.94
2022-11-10T02:48:31.367Z,100181.94
2022-11-10T02:51:37.732Z,100176.25
2022-11-10T02:54:44.164Z,100184.19
2022-11-10T02:57:50.968Z,100187.22
2022-11-10T03:00:57.287Z,100183.97
2022-11-10T03:04:05.980Z,100187.06
2022-11-10T03:07:12.198Z,100185.63
2022-11-10T03:10:18.622Z,100185.63
2022-11-10T03:13:32.253Z,100182.34
2022-11-10T03:16:51.428Z,100189.81
2022-11-10T03:19:57.926Z,100177.66
2022-11-10T03:23:05.731Z,100179.44
2022-11-10T03:26:11.916Z,100175.69
2022-11-10T03:29:18.825Z,100184.56
2022-11-10T03:32:25.250Z,100178.13
2022-11-10T03:35:32.050Z,100177.00
2022-11-10T03:38:38.391Z,100174.25
2022-11-10T03:41:44.624Z,100171.81
2022-11-10T03:44:50.872Z,100167.44
2022-11-10T03:47:56.953Z,100172.97
2022-11-10T03:51:03.662Z,100170.22
2022-11-10T03:54:09.691Z,100163.41
2022-11-10T03:57:16.222Z,100162.09
2022-11-10T04:00:22.235Z,100152.03
2022-11-10T04:03:28.673Z,100160.25
2022-11-10T04:06:53.760Z,100162.78
2022-11-10T04:10:00.141Z,100168.31
2022-11-10T04:13:25.217Z,100157.59
2022-11-10T04:16:31.616Z,100157.59
2022-11-10T04:19:38.110Z,100160.59
2022-11-10T04:23:02.467Z,100163.97
2022-11-10T04:26:28.974Z,100159.59
2022-11-10T04:29:34.952Z,100154.41
2022-11-10T04:32:41.034Z,100157.31
2022-11-10T04:35:47.297Z,100168.66
2022-11-10T04:38:55.337Z,100166.66
2022-11-10T04:42:03.059Z,100177.81
2022-11-10T04:45:10.050Z,100173.09
2022-11-10T04:48:16.285Z,100187.16
2022-11-10T04:51:25.413Z,100189.69
2022-11-10T04:54:31.368Z,100190.66
2022-11-10T04:57:37.431Z,100186.28
2022-11-10T05:00:43.583Z,100197.78
2022-11-10T05:03:50.543Z,100197.25
2022-11-10T05:06:57.228Z,100190.88
2022-11-10T05:10:04.696Z,100192.28
2022-11-10T05:13:11.540Z,100186.28
2022-11-10T05:16:17.731Z,100188.63
2022-11-10T05:19:23.610Z,100177.22
2022-11-10T05:22:29.668Z,100184.66
2022-11-10T05:25:38.198Z,100181.38
2022-11-10T05:28:45.896Z,100183.81
2022-11-10T05:31:52.129Z,100185.44
2022-11-10T05:34:58.063Z,100181.91
2022-11-10T05:38:05.194Z,100191.59
2022-11-10T05:41:11.811Z,100183.25
2022-11-10T05:44:18.022Z,100187.28
2022-11-10T05:47:24.193Z,100188.78
2022-11-10T05:50:30.353Z,100191.88
2022-11-10T05:53:36.712Z,100188.56
2022-11-10T05:56:42.754Z,100184.03
2022-11-10T05:59:49.339Z,100178.69
2022-11-10T06:03:02.971Z,100184.56
2022-11-10T06:06:09.222Z,100183.78
2022-11-10T06:09:15.405Z,100183.03
2022-11-10T06:12:21.928Z,100183.81
2022-11-10T06:15:28.067Z,100173.44
2022-11-10T06:18:34.096Z,100172.66
2022-11-10T06:21:40.142Z,100181.97
2022-11-10T06:24:46.848Z,100182.97
2022-11-10T06:27:52.763Z,100187.75
2022-11-10T06:30:59.293Z,100194.72
2022-11-10T06:34:05.617Z,100198.25
2022-11-10T06:37:11.721Z,100199.25
2022-11-10T06:40:17.564Z,100200.72
2022-11-10T06:43:24.169Z,100188.16
2022-11-10T06:46:30.522Z,100183.63
2022-11-10T06:49:36.522Z,100186.22
2022-11-10T06:52:42.417Z,100185.81
2022-11-10T06:55:48.590Z,100186.13
2022-11-10T06:58:54.477Z,100195.09
2022-11-10T07:02:00.555Z,100191.72
2022-11-10T07:05:06.721Z,100196.88
2022-11-10T07:08:16.481Z,100195.63
2022-11-10T07:11:22.508Z,100198.72
2022-11-10T07:14:28.507Z,100191.41
2022-11-10T07:17:41.726Z,100197.75
2022-11-10T07:20:47.718Z,100199.72
2022-11-10T07:23:53.979Z,100206.56
2022-11-10T07:27:00.664Z,100203.00
2022-11-10T07:30:07.713Z,100204.31
2022-11-10T07:33:14.848Z,100200.88
2022-11-10T07:36:20.726Z,100204.97
2022-11-10T07:39:26.640Z,100202.47
2022-11-10T07:42:32.673Z,100192.63
2022-11-10T07:45:39.137Z,100205.31
2022-11-10T07:48:45.285Z,100202.56
2022-11-10T07:51:51.521Z,100211.63
2022-11-10T07:54:58.031Z,100207.38
2022-11-10T07:58:04.866Z,100212.03
2022-11-10T08:01:11.032Z,100218.19
2022-11-10T08:04:17.371Z,100225.50
2022-11-10T08:07:23.490Z,100214.75
2022-11-10T08:10:30.509Z,100214.28
2022-11-10T08:13:36.458Z,100210.56
2022-11-10T08:16:42.350Z,100206.69
2022-11-10T08:19:48.174Z,100210.88
2022-11-10T08:23:02.904Z,100197.41
2022-11-10T08:26:09.210Z,100203.88
2022-11-10T08:29:15.178Z,100205.03
2022-11-10T08:32:21.354Z,100204.22
2022-11-10T08:35:30.521Z,100196.25
2022-11-10T08:38:36.701Z,100194.31
2022-11-10T08:41:42.715Z,100196.25
2022-11-10T08:44:48.849Z,100197.91
2022-11-10T08:48:02.779Z,100209.78
2022-11-10T08:51:09.228Z,100194.91
2022-11-10T08:54:15.233Z,100201.94
2022-11-10T08:57:21.214Z,100198.84
2022-11-10T09:00:28.805Z,100207.34
2022-11-10T09:03:35.285Z,100202.69
2022-11-10T09:06:42.926Z,100192.13
2022-11-10T09:10:05.914Z,100182.38
2022-11-10T09:13:15.129Z,100193.72
2022-11-10T09:16:21.503Z,100179.44
2022-11-10T09:19:27.429Z,100196.66
2022-11-10T09:22:36.014Z,100194.41
2022-11-10T09:25:43.648Z,100189.03
2022-11-10T09:28:50.543Z,100189.38
2022-11-10T09:31:56.599Z,100193.28
2022-11-10T09:35:03.890Z,100182.88
2022-11-10T09:38:09.954Z,100188.72
2022-11-10T09:41:16.204Z,100181.28
2022-11-10T09:44:29.632Z,100193.63
2022-11-10T09:48:00.516Z,100181.59
2022-11-10T09:51:17.116Z,100169.06
2022-11-10T09:54:33.580Z,100165.78
2022-11-10T09:57:47.712Z,100162.03
2022-11-10T10:01:05.471Z,100161.72
2022-11-10T10:04:20.431Z,100169.81
2022-11-10T10:07:48.644Z,100170.00
2022-11-10T10:10:57.624Z,100166.28
2022-11-10T10:14:39.395Z,100174.72
2022-11-10T10:18:25.737Z,100161.41
2022-11-10T10:21:51.396Z,100167.59
2022-11-10T10:25:02.147Z,100165.13
2022-11-10T10:28:20.032Z,100162.22
2022-11-10T10:31:32.690Z,100175.06
2022-11-10T10:34:39.594Z,100164.69
2022-11-10T10:37:51.185Z,100158.97
2022-11-10T10:41:03.490Z,100159.78
2022-11-10T10:44:19.113Z,100169.88
2022-11-10T10:47:37.478Z,100172.78
2022-11-10T10:50:43.631Z,100172.16
2022-11-10T10:53:49.878Z,100171.50
2022-11-10T10:57:05.143Z,100178.34
2022-11-10T11:00:22.030Z,100171.97
2022-11-10T11:03:50.109Z,100163.03
2022-11-10T11:07:02.769Z,100169.53
2022-11-10T11:10:24.325Z,100156.22
2022-11-10T11:13:30.397Z,100154.09
2022-11-10T11:16:56.654Z,100154.44
2022-11-10T11:20:03.181Z,100161.75
2022-11-10T11:23:15.229Z,100158.81
2022-11-10T11:26:59.517Z,100160.13
2022-11-10T11:30:10.668Z,100160.75
2022-11-10T11:33:19.737Z,100176.06
2022-11-10T11:36:39.121Z,100170.69
2022-11-10T11:39:50.977Z,100165.97
2022-11-10T11:43:08.310Z,100171.81
2022-11-10T11:46:43.655Z,100181.91
2022-11-10T11:50:35.631Z,100174.06
2022-11-10T11:54:02.794Z,100186.72
2022-11-10T11:57:46.630Z,100166.56
2022-11-10T12:00:59.921Z,100162.69
2022-11-10T12:04:30.986Z,100165.91
2022-11-10T12:08:01.915Z,100167.91
2022-11-10T12:11:38.878Z,100171.78
2022-11-10T12:15:16.833Z,100168.88
2022-11-10T12:18:36.333Z,100157.50
2022-11-10T12:21:49.139Z,100148.41
2022-11-10T12:25:01.660Z,100161.72
2022-11-10T12:28:17.336Z,100166.13
2022-11-10T12:31:26.678Z,100172.63
2022-11-10T12:34:56.882Z,100192.94
2022-11-10T12:38:21.738Z,100202.03
2022-11-10T12:41:35.923Z,100201.97
2022-11-10T12:44:54.348Z,100206.50
2022-11-10T12:48:02.726Z,100214.63
2022-11-10T12:51:25.787Z,100209.75
2022-11-10T12:54:31.753Z,100214.28
2022-11-10T12:57:38.418Z,100207.63
2022-11-10T13:00:56.619Z,100207.44
2022-11-10T13:04:03.138Z,100213.13
2022-11-10T13:07:13.656Z,100213.63
2022-11-10T13:10:26.431Z,100211.03
2022-11-10T13:13:52.234Z,100215.19
2022-11-10T13:17:00.434Z,100216.50
2022-11-10T13:20:44.632Z,100226.06
2022-11-10T13:23:50.425Z,100229.13
2022-11-10T13:26:57.473Z,100239.84
2022-11-10T13:30:03.701Z,100255.38
2022-11-10T13:33:35.128Z,100244.34
2022-11-10T13:36:43.686Z,100243.00
2022-11-10T13:39:50.513Z,100239.91
2022-11-10T13:42:59.556Z,100246.88
2022-11-10T13:46:05.831Z,100247.53
2022-11-10T13:49:33.514Z,100247.91
2022-11-10T13:52:56.701Z,100242.84
2022-11-10T13:56:08.507Z,100248.22
2022-11-10T13:59:21.089Z,100245.59
2022-11-10T14:02:39.305Z,100247.53
2022-11-10T14:06:07.891Z,100253.31
2022-11-10T14:09:26.966Z,100252.81
2022-11-10T14:12:55.761Z,100250.34
2022-11-10T14:16:02.387Z,100250.34
2022-11-10T14:19:14.396Z,100248.28
2022-11-10T14:22:37.981Z,100246.47
2022-11-10T14:25:45.069Z,100235.81
2022-11-10T14:28:51.482Z,100230.63
2022-11-10T14:32:12.268Z,100231.88
2022-11-10T14:35:28.108Z,100207.69
2022-11-10T14:38:35.872Z,100214.38
2022-11-10T14:41:49.403Z,100236.75
2022-11-10T14:45:13.806Z,100248.94
2022-11-10T14:48:25.800Z,100253.16
2022-11-10T14:51:34.855Z,100255.75
2022-11-10T14:54:46.067Z,100258.00
2022-11-10T14:58:08.208Z,100265.81
2022-11-10T15:01:27.722Z,100264.81
2022-11-10T15:04:36.558Z,100258.47
2022-11-10T15:07:44.987Z,100250.66
2022-11-10T15:10:56.460Z,100255.53
2022-11-10T15:14:02.750Z,100265.25
2022-11-10T15:17:11.249Z,100260.41
2022-11-10T15:20:38.656Z,100264.09
2022-11-10T15:23:52.457Z,100264.41
2022-11-10T15:26:58.571Z,100263.97
2022-11-10T15:30:23.051Z,100260.41
2022-11-10T15:33:34.267Z,100259.22
2022-11-10T15:36:40.430Z,100267.84
2022-11-10T15:39:46.548Z,100263.59
2022-11-10T15:43:28.033Z,100273.03
2022-11-10T15:46:34.536Z,100259.66
2022-11-10T15:49:41.212Z,100274.56
2022-11-10T15:52:47.310Z,100265.16
2022-11-10T15:55:53.428Z,100267.25
2022-11-10T15:59:02.404Z,100260.72
2022-11-10T16:02:20.264Z,100264.44
2022-11-10T16:05:26.202Z,100270.09
2022-11-10T16:08:32.335Z,100263.09
2022-11-10T16:11:40.637Z,100260.00
2022-11-10T16:14:49.812Z,100257.56
2022-11-10T16:17:55.951Z,100255.13
2022-11-10T16:21:02.075Z,100255.94
2022-11-10T16:24:08.190Z,100244.22
2022-11-10T16:27:14.959Z,100249.69
2022-11-10T16:30:21.174Z,100254.38
2022-11-10T16:33:29.140Z,100249.34
2022-11-10T16:36:36.597Z,100252.91
2022-11-10T16:39:42.827Z,100248.00
2022-11-10T16:42:51.472Z,100252.38
2022-11-10T16:46:00.384Z,100252.25
2022-11-10T16:49:15.193Z,100260.41
2022-11-10T16:52:22.717Z,100257.72
2022-11-10T16:55:29.527Z,100270.34
2022-11-10T16:58:35.951Z,100261.56
2022-11-10T17:01:44.260Z,100254.78
2022-11-10T17:04:50.561Z,100274.84
2022-11-10T17:07:58.857Z,100279.69
2022-11-10T17:11:05.238Z,100284.88
2022-11-10T17:14:13.067Z,100284.88
2022-11-10T17:17:20.061Z,100270.91
2022-11-10T17:20:34.511Z,100279.06
2022-11-10T17:23:40.971Z,100272.63
2022-11-10T17:26:47.800Z,100271.16
2022-11-10T17:29:54.117Z,100260.25
2022-11-10T17:33:05.099Z,100265.44
2022-11-10T17:36:15.827Z,100262.16
2022-11-10T17:39:22.695Z,100268.19
2022-11-10T17:42:29.014Z,100271.91
2022-11-10T17:45:35.405Z,100273.16
2022-11-10T17:48:42.074Z,100277.53
2022-11-10T17:51:48.206Z,100269.38
2022-11-10T17:54:54.663Z,100273.19
2022-11-10T17:58:01.216Z,100273.34
2022-11-10T18:01:19.096Z,100275.28
2022-11-10T18:04:26.476Z,100271.34
2022-11-10T18:07:33.220Z,100265.16
2022-11-10T18:10:46.446Z,100275.53
2022-11-10T18:13:52.571Z,100277.03
2022-11-10T18:16:58.619Z,100278.81
2022-11-10T18:20:05.643Z,100265.84
2022-11-10T18:23:12.694Z,100261.75
2022-11-10T18:26:18.684Z,100274.88
2022-11-10T18:29:24.783Z,100267.25
2022-11-10T18:32:30.807Z,100280.56
2022-11-10T18:35:39.301Z,100279.78
2022-11-10T18:38:45.451Z,100273.25
2022-11-10T18:41:52.654Z,100276.53
2022-11-10T18:44:58.819Z,100274.72
2022-11-10T18:48:05.384Z,100271.34
2022-11-10T18:51:11.710Z,100268.44
2022-11-10T18:54:18.111Z,100267.25
2022-11-10T18:57:24.209Z,100280.38
2022-11-10T19:00:30.548Z,100277.09
2022-11-10T19:03:37.089Z,100274.09
2022-11-10T19:06:43.126Z,100274.28
2022-11-10T19:09:49.421Z,100268.56
2022-11-10T19:12:56.020Z,100275.75
2022-11-10T19:16:09.944Z,100278.47
2022-11-10T19:19:16.384Z,100277.81
2022-11-10T19:22:22.754Z,100270.31
2022-11-10T19:25:29.780Z,100268.00
2022-11-10T19:28:37.269Z,100273.47
2022-11-10T19:31:44.196Z,100267.50
2022-11-10T19:34:50.577Z,100259.81
2022-11-10T19:37:56.862Z,100259.31
2022-11-10T19:41:06.222Z,100263.25
2022-11-10T19:44:12.611Z,100265.56
2022-11-10T19:47:18.559Z,100252.34
2022-11-10T19:50:24.533Z,100268.75
2022-11-10T19:53:31.725Z,100266.31
2022-11-10T19:56:37.707Z,100262.31
2022-11-10T19:59:43.921Z,100262.00
2022-11-10T20:02:52.068Z,100267.50
2022-11-10T20:06:00.832Z,100265.56
2022-11-10T20:09:06.776Z,100267.50
2022-11-10T20:12:13.193Z,100278.13
2022-11-10T20:15:19.475Z,100272.94
2022-11-10T20:18:25.872Z,100281.84
2022-11-10T20:21:32.046Z,100279.47
2022-11-10T20:24:38.524Z,100281.41
2022-11-10T20:27:44.884Z,100275.78
2022-11-10T20:30:51.239Z,100275.34
2022-11-10T20:33:57.895Z,100271.81
2022-11-10T20:37:04.304Z,100269.75
2022-11-10T20:40:42.248Z,100281.22
2022-11-10T20:43:40.132Z,100280.81
2022-11-10T20:46:54.484Z,100276.72
2022-11-10T20:50:01.076Z,100277.03
2022-11-10T20:53:07.418Z,100274.59
2022-11-10T20:56:15.657Z,100281.56
2022-11-10T20:59:22.022Z,100271.03
2022-11-10T21:02:28.130Z,100278.53
2022-11-10T21:05:34.749Z,100280.53
2022-11-10T21:08:41.090Z,100269.47
2022-11-10T21:12:06.126Z,100272.06
2022-11-10T21:15:12.444Z,100267.44
2022-11-10T21:18:19.586Z,100280.94
2022-11-10T21:21:28.063Z,100271.34
2022-11-10T21:24:34.514Z,100266.47
2022-11-10T21:27:40.973Z,100274.41
2022-11-10T21:30:47.464Z,100280.53
2022-11-10T21:33:57.909Z,100272.22
2022-11-10T21:37:04.009Z,100278.53
2022-11-10T21:40:11.436Z,100276.34
2022-11-10T21:43:17.527Z,100281.38
2022-11-10T21:46:24.688Z,100282.91
2022-11-10T21:49:31.174Z,100274.59
2022-11-10T21:52:37.516Z,100276.53
2022-11-10T21:55:43.971Z,100280.72
2022-11-10T21:58:50.087Z,100280.06
2022-11-10T22:01:56.554Z,100289.63
2022-11-10T22:05:03.352Z,100287.41
2022-11-10T22:08:10.690Z,100287.41
2022-11-10T22:11:38.212Z,100290.16
2022-11-10T22:15:03.106Z,100284.66
2022-11-10T22:18:37.443Z,100286.75
2022-11-10T22:21:44.446Z,100293.03
2022-11-10T22:24:50.868Z,100284.56
2022-11-10T22:27:57.638Z,100287.47
2022-11-10T22:31:04.777Z,100287.91
2022-11-10T22:34:11.241Z,100286.13
2022-11-10T22:37:17.707Z,100281.75
2022-11-10T22:40:42.934Z,100282.56
2022-11-10T22:44:03.900Z,100281.91
2022-11-10T22:47:09.898Z,100275.25
2022-11-10T22:50:16.544Z,100281.25
2022-11-10T22:53:23.919Z,100274.56
2022-11-10T22:56:32.185Z,100272.78
2022-11-10T22:59:38.600Z,100271.97
2022-11-10T23:02:45.159Z,100276.19
2022-11-10T23:05:56.314Z,100275.25
2022-11-10T23:09:03.389Z,100271.66
2022-11-10T23:12:09.485Z,100271.66
2022-11-10T23:15:15.870Z,100276.56
2022-11-10T23:18:22.741Z,100279.16
2022-11-10T23:21:30.434Z,100272.19
2022-11-10T23:24:36.803Z,100278.19
2022-11-10T23:27:43.473Z,100268.94
2022-11-10T23:30:50.353Z,100271.53
2022-11-10T23:33:57.867Z,100269.75
2022-11-10T23:37:04.095Z,100274.41
2022-11-10T23:40:10.772Z,100276.19
2022-11-10T23:43:17.247Z,100282.72
2022-11-10T23:46:23.740Z,100273.00
2022-11-10T23:49:30.258Z,100275.91
2022-11-10T23:52:36.362Z,100267.59
2022-11-10T23:55:43.120Z,100279.59
2022-11-10T23:58:49.514Z,100275.59
